createdAt,value
2019-02-19T00:00:33.886Z,994.09
2019-02-19T00:01:33.833Z,994.12
2019-02-19T00:02:33.816Z,994.10
2019-02-19T00:03:33.822Z,994.05
2019-02-19T00:04:33.828Z,994.09
2019-02-19T00:05:33.794Z,994.06
2019-02-19T00:06:33.771Z,994.09
2019-02-19T00:07:33.803Z,994.11
2019-02-19T00:08:33.752Z,994.09
2019-02-19T00:09:33.778Z,994.13
2019-02-19T00:10:33.772Z,994.13
2019-02-19T00:11:33.721Z,994.10
2019-02-19T00:12:33.707Z,994.11
2019-02-19T00:13:33.704Z,994.12
2019-02-19T00:14:33.713Z,994.06
2019-02-19T00:15:33.691Z,994.15
2019-02-19T00:16:33.668Z,994.07
2019-02-19T00:17:33.678Z,994.10
2019-02-19T00:18:33.645Z,994.13
2019-02-19T00:19:33.631Z,994.17
2019-02-19T00:20:33.624Z,994.16
2019-02-19T00:21:33.610Z,994.17
2019-02-19T00:22:33.636Z,994.16
2019-02-19T00:23:33.593Z,994.25
2019-02-19T00:24:33.604Z,994.18
2019-02-19T00:25:33.567Z,994.20
2019-02-19T00:26:33.585Z,994.19
2019-02-19T00:27:33.595Z,994.13
2019-02-19T00:28:33.557Z,994.18
2019-02-19T00:29:33.574Z,994.13
2019-02-19T00:30:33.540Z,994.10
2019-02-19T00:31:33.512Z,994.09
2019-02-19T00:32:33.565Z,994.07
2019-02-19T00:33:33.483Z,994.08
2019-02-19T00:34:33.491Z,994.09
2019-02-19T00:35:33.465Z,994.08
2019-02-19T00:36:33.451Z,994.07
2019-02-19T00:37:33.474Z,994.05
2019-02-19T00:38:33.441Z,994.05
2019-02-19T00:39:33.444Z,994.08
2019-02-19T00:40:33.422Z,993.99
2019-02-19T00:41:33.397Z,994.05
2019-02-19T00:42:33.439Z,994.04
2019-02-19T00:43:33.414Z,994.03
2019-02-19T00:44:33.368Z,993.97
2019-02-19T00:45:33.365Z,994.00
2019-02-19T00:46:33.362Z,994.02
2019-02-19T00:47:33.361Z,994.02
2019-02-19T00:48:33.369Z,993.97
2019-02-19T00:49:33.321Z,993.95
2019-02-19T00:50:33.306Z,994.00
2019-02-19T00:51:33.301Z,993.98
2019-02-19T00:52:33.288Z,993.98
2019-02-19T00:53:33.305Z,993.99
2019-02-19T00:54:33.263Z,993.99
2019-02-19T00:55:33.253Z,993.97
2019-02-19T00:56:33.286Z,994.04
2019-02-19T00:57:33.235Z,993.97
2019-02-19T00:58:33.222Z,993.98
2019-02-19T00:59:33.214Z,994.00
2019-02-19T01:00:33.221Z,993.93
2019-02-19T01:01:33.197Z,993.97
2019-02-19T01:02:33.189Z,994.01
2019-02-19T01:03:33.170Z,993.96
2019-02-19T01:04:33.184Z,993.95
2019-02-19T01:05:33.152Z,993.91
2019-02-19T01:06:33.172Z,993.95
2019-02-19T01:07:33.130Z,993.94
2019-02-19T01:08:39.727Z,993.93
2019-02-19T01:09:33.122Z,993.89
2019-02-19T01:10:33.118Z,993.90
2019-02-19T01:11:33.111Z,993.87
2019-02-19T01:12:33.112Z,993.90
2019-02-19T01:13:33.093Z,993.91
2019-02-19T01:14:33.070Z,993.91
2019-02-19T01:15:33.050Z,993.87
2019-02-19T01:16:33.051Z,993.89
2019-02-19T01:17:33.059Z,993.85
2019-02-19T01:18:33.013Z,993.85
2019-02-19T01:19:33.016Z,993.87
2019-02-19T01:20:32.991Z,993.86
2019-02-19T01:21:32.986Z,993.92
2019-02-19T01:22:32.997Z,993.91
2019-02-19T01:23:32.962Z,993.87
2019-02-19T01:24:32.980Z,993.83
2019-02-19T01:25:32.946Z,993.83
2019-02-19T01:26:32.932Z,993.85
2019-02-19T01:27:32.947Z,993.80
2019-02-19T01:28:32.916Z,993.90
2019-02-19T01:29:32.907Z,993.85
2019-02-19T01:30:32.897Z,993.81
2019-02-19T01:31:32.898Z,993.84
2019-02-19T01:32:32.896Z,993.86
2019-02-19T01:33:32.894Z,993.86
2019-02-19T01:34:32.846Z,993.82
2019-02-19T01:35:32.848Z,993.85
2019-02-19T01:36:32.861Z,993.86
2019-02-19T01:37:32.828Z,993.88
2019-02-19T01:38:32.818Z,993.84
2019-02-19T01:39:32.799Z,993.87
2019-02-19T01:40:32.786Z,993.86
2019-02-19T01:41:32.813Z,993.80
2019-02-19T01:42:32.818Z,993.88
2019-02-19T01:43:32.780Z,993.92
2019-02-19T01:44:32.752Z,993.91
2019-02-19T01:45:34.281Z,993.85
2019-02-19T01:46:32.738Z,993.88
2019-02-19T01:47:32.725Z,993.90
2019-02-19T01:48:32.737Z,993.91
2019-02-19T01:49:32.710Z,993.93
2019-02-19T01:50:32.684Z,993.93
2019-02-19T01:51:32.678Z,993.91
2019-02-19T01:52:32.662Z,993.94
2019-02-19T01:53:32.689Z,993.92
2019-02-19T01:54:32.644Z,993.86
2019-02-19T01:55:32.657Z,993.90
2019-02-19T01:56:32.621Z,993.92
2019-02-19T01:57:32.612Z,993.94
2019-02-19T01:58:32.634Z,993.90
2019-02-19T01:59:32.593Z,993.88
2019-02-19T02:00:32.591Z,993.94
2019-02-19T02:01:32.583Z,993.89
2019-02-19T02:02:32.563Z,993.91
2019-02-19T02:03:32.579Z,993.89
2019-02-19T02:04:32.540Z,993.94
2019-02-19T02:05:32.530Z,993.86
2019-02-19T02:06:32.525Z,993.92
2019-02-19T02:07:32.547Z,993.91
2019-02-19T02:08:32.539Z,993.96
2019-02-19T02:09:32.500Z,993.92
2019-02-19T02:10:32.513Z,993.89
2019-02-19T02:11:32.591Z,993.90
2019-02-19T02:12:32.462Z,993.89
2019-02-19T02:13:32.452Z,993.91
2019-02-19T02:14:32.437Z,993.95
2019-02-19T02:15:32.443Z,993.98
2019-02-19T02:16:32.460Z,994.00
2019-02-19T02:17:32.420Z,993.99
2019-02-19T02:18:32.400Z,993.97
2019-02-19T02:19:32.401Z,993.99
2019-02-19T02:20:32.401Z,993.99
2019-02-19T02:21:32.393Z,993.90
2019-02-19T02:22:32.361Z,993.94
2019-02-19T02:23:32.343Z,993.92
2019-02-19T02:24:32.340Z,993.92
2019-02-19T02:25:32.328Z,993.95
2019-02-19T02:26:32.336Z,993.91
2019-02-19T02:27:32.348Z,993.90
2019-02-19T02:28:32.310Z,993.93
2019-02-19T02:29:32.283Z,993.86
2019-02-19T02:30:32.291Z,993.88
2019-02-19T02:31:32.260Z,993.88
2019-02-19T02:32:32.293Z,993.97
2019-02-19T02:33:32.238Z,993.90
2019-02-19T02:34:32.232Z,993.89
2019-02-19T02:35:32.219Z,993.89
2019-02-19T02:36:32.257Z,993.98
2019-02-19T02:37:32.231Z,993.96
2019-02-19T02:38:32.191Z,994.02
2019-02-19T02:39:32.191Z,993.96
2019-02-19T02:40:32.187Z,993.98
2019-02-19T02:41:32.169Z,994.01
2019-02-19T02:42:32.148Z,993.98
2019-02-19T02:43:32.164Z,994.03
2019-02-19T02:44:32.147Z,993.96
2019-02-19T02:45:32.135Z,993.99
2019-02-19T02:46:32.107Z,993.99
2019-02-19T02:47:32.095Z,994.02
2019-02-19T02:48:32.094Z,993.98
2019-02-19T02:49:32.106Z,994.02
2019-02-19T02:50:32.064Z,993.96
2019-02-19T02:51:32.083Z,994.03
2019-02-19T02:52:32.067Z,994.02
2019-02-19T02:53:32.060Z,994.07
2019-02-19T02:54:32.023Z,994.07
2019-02-19T02:55:32.043Z,994.10
2019-02-19T02:56:32.007Z,994.08
2019-02-19T02:57:32.023Z,994.02
2019-02-19T02:58:31.984Z,994.03
2019-02-19T02:59:31.969Z,994.07
2019-02-19T03:00:31.959Z,994.08
2019-02-19T03:01:31.953Z,994.04
2019-02-19T03:02:31.967Z,994.01
2019-02-19T03:03:31.943Z,993.99
2019-02-19T03:04:31.925Z,993.96
2019-02-19T03:05:31.932Z,994.01
2019-02-19T03:06:31.897Z,994.03
2019-02-19T03:07:31.885Z,994.02
2019-02-19T03:08:31.924Z,994.05
2019-02-19T03:09:31.870Z,994.06
2019-02-19T03:10:31.856Z,994.05
2019-02-19T03:11:31.867Z,994.06
2019-02-19T03:12:31.841Z,994.07
2019-02-19T03:13:31.848Z,994.07
2019-02-19T03:14:31.838Z,994.04
2019-02-19T03:15:31.813Z,994.03
2019-02-19T03:16:31.799Z,994.02
2019-02-19T03:17:31.781Z,994.04
2019-02-19T03:18:31.775Z,994.03
2019-02-19T03:19:31.795Z,994.02
2019-02-19T03:20:31.770Z,994.04
2019-02-19T03:21:31.737Z,994.02
2019-02-19T03:22:31.735Z,994.04
2019-02-19T03:23:31.720Z,994.07
2019-02-19T03:24:31.734Z,994.10
2019-02-19T03:25:31.720Z,994.07
2019-02-19T03:26:31.707Z,994.12
2019-02-19T03:27:31.669Z,994.10
2019-02-19T03:28:31.675Z,994.07
2019-02-19T03:29:31.648Z,994.09
2019-02-19T03:30:31.674Z,994.10
2019-02-19T03:31:31.638Z,994.07
2019-02-19T03:32:31.649Z,994.15
2019-02-19T03:33:31.606Z,994.14
2019-02-19T03:34:31.602Z,994.07
2019-02-19T03:35:31.613Z,994.16
2019-02-19T03:36:31.578Z,994.17
2019-02-19T03:37:31.593Z,994.14
2019-02-19T03:38:31.566Z,994.14
2019-02-19T03:39:31.541Z,994.19
2019-02-19T03:40:31.555Z,994.19
2019-02-19T03:41:31.553Z,994.22
2019-02-19T03:42:31.508Z,994.22
2019-02-19T03:43:31.495Z,994.25
2019-02-19T03:44:31.481Z,994.21
2019-02-19T03:45:31.475Z,994.19
2019-02-19T03:46:31.528Z,994.19
2019-02-19T03:47:31.446Z,994.18
2019-02-19T03:48:31.435Z,994.23
2019-02-19T03:49:31.433Z,994.25
2019-02-19T03:50:31.423Z,994.26
2019-02-19T03:51:31.428Z,994.18
2019-02-19T03:52:31.418Z,994.23
2019-02-19T03:53:31.379Z,994.23
2019-02-19T03:54:31.390Z,994.28
2019-02-19T03:55:31.355Z,994.24
2019-02-19T03:56:31.345Z,994.24
2019-02-19T03:57:31.367Z,994.27
2019-02-19T03:58:31.325Z,994.27
2019-02-19T03:59:31.317Z,994.27
2019-02-19T04:00:31.329Z,994.27
2019-02-19T04:01:31.289Z,994.26
2019-02-19T04:02:31.305Z,994.27
2019-02-19T04:03:31.265Z,994.32
2019-02-19T04:04:31.259Z,994.29
2019-02-19T04:05:31.283Z,994.24
2019-02-19T04:06:32.446Z,994.28
2019-02-19T04:07:31.218Z,994.29
2019-02-19T04:08:31.246Z,994.28
2019-02-19T04:09:31.198Z,994.32
2019-02-19T04:10:31.192Z,994.28
2019-02-19T04:11:31.189Z,994.36
2019-02-19T04:12:31.168Z,994.35
2019-02-19T04:13:31.176Z,994.38
2019-02-19T04:14:31.146Z,994.44
2019-02-19T04:15:31.161Z,994.41
2019-02-19T04:16:31.121Z,994.41
2019-02-19T04:17:31.118Z,994.44
2019-02-19T04:18:31.126Z,994.42
2019-02-19T04:19:31.102Z,994.41
2019-02-19T04:20:31.077Z,994.49
2019-02-19T04:21:31.091Z,994.45
2019-02-19T04:22:31.053Z,994.51
2019-02-19T04:23:31.082Z,994.47
2019-02-19T04:24:31.047Z,994.49
2019-02-19T04:25:31.015Z,994.51
2019-02-19T04:26:31.010Z,994.44
2019-02-19T04:27:30.994Z,994.47
2019-02-19T04:28:31.018Z,994.45
2019-02-19T04:29:30.987Z,994.46
2019-02-19T04:30:30.958Z,994.48
2019-02-19T04:31:31.855Z,994.42
2019-02-19T04:32:30.986Z,994.47
2019-02-19T04:33:30.931Z,994.57
2019-02-19T04:34:30.919Z,994.58
2019-02-19T04:35:30.915Z,994.60
2019-02-19T04:36:39.419Z,994.57
2019-02-19T04:37:30.911Z,994.53
2019-02-19T04:38:30.873Z,994.55
2019-02-19T04:39:30.856Z,994.61
2019-02-19T04:40:30.849Z,994.61
2019-02-19T04:41:30.838Z,994.61
2019-02-19T04:42:30.846Z,994.64
2019-02-19T04:43:30.812Z,994.67
2019-02-19T04:44:30.801Z,994.67
2019-02-19T04:45:30.792Z,994.71
2019-02-19T04:46:31.856Z,994.62
2019-02-19T04:47:30.791Z,994.64
2019-02-19T04:48:30.766Z,994.66
2019-02-19T04:49:30.771Z,994.65
2019-02-19T04:50:30.730Z,994.60
2019-02-19T04:51:30.726Z,994.68
2019-02-19T04:52:30.724Z,994.61
2019-02-19T04:53:30.720Z,994.68
2019-02-19T04:54:30.712Z,994.71
2019-02-19T04:55:30.706Z,994.66
2019-02-19T04:56:30.668Z,994.70
2019-02-19T04:57:30.654Z,994.69
2019-02-19T04:58:30.646Z,994.68
2019-02-19T04:59:30.660Z,994.68
2019-02-19T05:00:30.620Z,994.72
2019-02-19T05:01:30.611Z,994.73
2019-02-19T05:02:30.597Z,994.67
2019-02-19T05:03:30.613Z,994.66
2019-02-19T05:04:30.578Z,994.73
2019-02-19T05:05:30.601Z,994.78
2019-02-19T05:06:30.554Z,994.69
2019-02-19T05:07:30.560Z,994.69
2019-02-19T05:08:30.568Z,994.72
2019-02-19T05:09:30.519Z,994.65
2019-02-19T05:10:30.524Z,994.71
2019-02-19T05:11:30.511Z,994.71
2019-02-19T05:12:30.483Z,994.73
2019-02-19T05:13:30.500Z,994.74
2019-02-19T05:14:30.462Z,994.71
2019-02-19T05:15:30.505Z,994.66
2019-02-19T05:16:30.438Z,994.73
2019-02-19T05:17:30.430Z,994.70
2019-02-19T05:18:30.429Z,994.71
2019-02-19T05:19:30.443Z,994.68
2019-02-19T05:20:30.441Z,994.71
2019-02-19T05:21:30.391Z,994.75
2019-02-19T05:22:30.389Z,994.79
2019-02-19T05:23:30.374Z,994.76
2019-02-19T05:24:30.346Z,994.78
2019-02-19T05:25:30.364Z,994.79
2019-02-19T05:26:30.340Z,994.73
2019-02-19T05:27:30.312Z,994.79
2019-02-19T05:28:30.301Z,994.77
2019-02-19T05:29:30.296Z,994.79
2019-02-19T05:30:30.306Z,994.79
2019-02-19T05:31:30.275Z,994.87
2019-02-19T05:32:30.284Z,994.85
2019-02-19T05:33:30.250Z,994.84
2019-02-19T05:34:30.234Z,994.86
2019-02-19T05:35:30.254Z,994.86
2019-02-19T05:36:30.239Z,994.83
2019-02-19T05:37:30.205Z,994.85
2019-02-19T05:38:30.194Z,994.82
2019-02-19T05:39:30.195Z,994.85
2019-02-19T05:40:30.169Z,994.86
2019-02-19T05:41:30.191Z,994.83
2019-02-19T05:42:30.182Z,994.84
2019-02-19T05:43:30.139Z,994.82
2019-02-19T05:44:30.131Z,994.81
2019-02-19T05:45:30.131Z,994.78
2019-02-19T05:46:30.108Z,994.76
2019-02-19T05:47:30.120Z,994.85
2019-02-19T05:48:30.112Z,994.79
2019-02-19T05:49:30.078Z,994.83
2019-02-19T05:50:30.063Z,994.81
2019-02-19T05:51:30.050Z,994.79
2019-02-19T05:52:30.044Z,994.81
2019-02-19T05:53:30.098Z,994.86
2019-02-19T05:54:30.018Z,994.84
2019-02-19T05:55:30.006Z,994.85
2019-02-19T05:56:29.993Z,994.86
2019-02-19T05:57:29.998Z,994.85
2019-02-19T05:58:30.013Z,994.89
2019-02-19T05:59:29.964Z,994.91
2019-02-19T06:00:29.955Z,994.91
2019-02-19T06:01:29.960Z,994.93
2019-02-19T06:02:29.933Z,994.92
2019-02-19T06:03:29.957Z,994.91
2019-02-19T06:04:29.911Z,994.96
2019-02-19T06:05:29.896Z,994.92
2019-02-19T06:06:29.893Z,994.98
2019-02-19T06:07:29.894Z,994.99
2019-02-19T06:08:29.910Z,995.04
2019-02-19T06:09:29.849Z,995.09
2019-02-19T06:10:29.849Z,995.10
2019-02-19T06:11:29.836Z,995.17
2019-02-19T06:12:29.838Z,995.19
2019-02-19T06:13:29.831Z,995.18
2019-02-19T06:14:29.793Z,995.23
2019-02-19T06:15:29.798Z,995.22
2019-02-19T06:16:29.795Z,995.24
2019-02-19T06:17:29.796Z,995.28
2019-02-19T06:18:29.749Z,995.23
2019-02-19T06:19:29.773Z,995.26
2019-02-19T06:20:29.724Z,995.25
2019-02-19T06:21:29.719Z,995.30
2019-02-19T06:22:29.747Z,995.34
2019-02-19T06:23:29.727Z,995.39
2019-02-19T06:24:29.696Z,995.34
2019-02-19T06:25:29.702Z,995.35
2019-02-19T06:26:29.669Z,995.37
2019-02-19T06:27:29.665Z,995.43
2019-02-19T06:28:29.725Z,995.40
2019-02-19T06:29:29.623Z,995.47
2019-02-19T06:30:29.631Z,995.40
2019-02-19T06:31:29.613Z,995.43
2019-02-19T06:32:29.603Z,995.52
2019-02-19T06:33:29.610Z,995.49
2019-02-19T06:34:29.574Z,995.46
2019-02-19T06:35:29.565Z,995.51
2019-02-19T06:36:29.673Z,995.53
2019-02-19T06:37:29.544Z,995.60
2019-02-19T06:38:29.586Z,995.61
2019-02-19T06:39:29.541Z,995.56
2019-02-19T06:40:29.506Z,995.58
2019-02-19T06:41:29.500Z,995.59
2019-02-19T06:42:29.507Z,995.63
2019-02-19T06:43:29.477Z,995.61
2019-02-19T06:44:29.578Z,995.67
2019-02-19T06:45:29.452Z,995.71
2019-02-19T06:46:29.455Z,995.68
2019-02-19T06:47:29.429Z,995.66
2019-02-19T06:48:29.423Z,995.63
2019-02-19T06:49:29.449Z,995.65
2019-02-19T06:50:29.397Z,995.63
2019-02-19T06:51:29.383Z,995.61
2019-02-19T06:52:29.392Z,995.61
2019-02-19T06:53:29.404Z,995.66
2019-02-19T06:54:29.350Z,995.72
2019-02-19T06:55:29.342Z,995.74
2019-02-19T06:56:29.336Z,995.77
2019-02-19T06:57:29.323Z,995.75
2019-02-19T06:58:29.344Z,995.78
2019-02-19T06:59:29.298Z,995.82
2019-02-19T07:00:29.299Z,995.80
2019-02-19T07:01:29.288Z,995.91
2019-02-19T07:02:29.270Z,995.85
2019-02-19T07:03:29.300Z,995.83
2019-02-19T07:04:29.253Z,995.92
2019-02-19T07:05:29.234Z,995.97
2019-02-19T07:06:30.645Z,995.94
2019-02-19T07:07:29.209Z,995.98
2019-02-19T07:08:29.223Z,995.92
2019-02-19T07:09:29.279Z,995.99
2019-02-19T07:10:29.205Z,995.97
2019-02-19T07:11:29.191Z,996.01
2019-02-19T07:12:29.182Z,995.97
2019-02-19T07:13:29.151Z,995.98
2019-02-19T07:14:29.135Z,996.00
2019-02-19T07:15:29.125Z,995.95
2019-02-19T07:16:29.139Z,996.03
2019-02-19T07:17:29.129Z,995.96
2019-02-19T07:18:29.109Z,995.95
2019-02-19T07:19:29.094Z,995.92
2019-02-19T07:20:29.073Z,995.89
2019-02-19T07:21:29.078Z,995.88
2019-02-19T07:22:29.045Z,995.85
2019-02-19T07:23:29.030Z,995.89
2019-02-19T07:24:29.038Z,995.82
2019-02-19T07:25:29.008Z,995.87
2019-02-19T07:26:28.999Z,995.91
2019-02-19T07:27:29.016Z,995.89
2019-02-19T07:28:28.979Z,995.93
2019-02-19T07:29:28.969Z,995.94
2019-02-19T07:30:28.976Z,995.98
2019-02-19T07:31:28.945Z,995.99
2019-02-19T07:32:28.933Z,995.99
2019-02-19T07:33:28.931Z,995.98
2019-02-19T07:34:28.910Z,996.00
2019-02-19T07:35:28.923Z,996.00
2019-02-19T07:36:28.882Z,996.04
2019-02-19T07:37:28.880Z,996.04
2019-02-19T07:38:28.863Z,996.05
2019-02-19T07:39:28.858Z,996.10
2019-02-19T07:40:28.878Z,996.11
2019-02-19T07:41:28.826Z,996.09
2019-02-19T07:42:28.839Z,996.15
2019-02-19T07:43:28.805Z,996.16
2019-02-19T07:44:28.805Z,996.18
2019-02-19T07:45:28.827Z,996.22
2019-02-19T07:46:28.780Z,996.18
2019-02-19T07:47:28.757Z,996.21
2019-02-19T07:48:28.748Z,996.23
2019-02-19T07:49:28.815Z,996.26
2019-02-19T07:50:28.734Z,996.21
2019-02-19T07:51:28.745Z,996.23
2019-02-19T07:52:28.727Z,996.32
2019-02-19T07:53:28.717Z,996.30
2019-02-19T07:54:28.812Z,996.33
2019-02-19T07:55:28.668Z,996.30
2019-02-19T07:56:28.656Z,996.35
2019-02-19T07:57:28.656Z,996.38
2019-02-19T07:58:28.679Z,996.38
2019-02-19T07:59:28.624Z,996.44
2019-02-19T08:00:28.619Z,996.39
2019-02-19T08:01:28.606Z,996.40
2019-02-19T08:02:28.601Z,996.41
2019-02-19T08:03:28.624Z,996.40
2019-02-19T08:04:28.575Z,996.44
2019-02-19T08:05:28.576Z,996.46
2019-02-19T08:06:28.553Z,996.50
2019-02-19T08:07:28.532Z,996.48
2019-02-19T08:08:28.567Z,996.51
2019-02-19T08:09:28.514Z,996.50
2019-02-19T08:10:28.500Z,996.52
2019-02-19T08:11:28.488Z,996.50
2019-02-19T08:12:28.476Z,996.51
2019-02-19T08:13:28.507Z,996.56
2019-02-19T08:14:28.652Z,996.54
2019-02-19T08:15:28.444Z,996.56
2019-02-19T08:16:28.437Z,996.60
2019-02-19T08:17:33.264Z,996.60
2019-02-19T08:18:29.447Z,996.67
2019-02-19T08:19:28.422Z,996.66
2019-02-19T08:20:28.419Z,996.67
2019-02-19T08:21:28.380Z,996.70
2019-02-19T08:22:28.384Z,996.75
2019-02-19T08:23:29.868Z,996.72
2019-02-19T08:24:28.370Z,996.74
2019-02-19T08:25:28.378Z,996.69
2019-02-19T08:26:28.326Z,996.75
2019-02-19T08:27:28.319Z,996.74
2019-02-19T08:28:28.314Z,996.76
2019-02-19T08:29:28.332Z,996.79
2019-02-19T08:30:28.278Z,996.75
2019-02-19T08:31:28.270Z,996.80
2019-02-19T08:32:28.272Z,996.79
2019-02-19T08:33:28.244Z,996.82
2019-02-19T08:34:28.252Z,996.83
2019-02-19T08:35:28.261Z,996.83
2019-02-19T08:36:29.707Z,996.84
2019-02-19T08:37:28.197Z,996.83
2019-02-19T08:38:28.197Z,996.87
2019-02-19T08:39:28.191Z,996.92
2019-02-19T08:40:28.487Z,996.95
2019-02-19T08:41:28.151Z,996.95
2019-02-19T08:42:28.146Z,996.94
2019-02-19T08:43:28.152Z,996.96
2019-02-19T08:44:28.156Z,996.97
2019-02-19T08:45:28.144Z,996.94
2019-02-19T08:46:28.092Z,996.98
2019-02-19T08:47:28.085Z,997.00
2019-02-19T08:48:28.074Z,996.97
2019-02-19T08:49:28.076Z,996.96
2019-02-19T08:50:28.074Z,997.03
2019-02-19T08:51:28.038Z,996.99
2019-02-19T08:52:28.037Z,997.04
2019-02-19T08:53:28.040Z,996.99
2019-02-19T08:54:28.011Z,997.05
2019-02-19T08:55:27.990Z,997.00
2019-02-19T08:56:27.985Z,997.00
2019-02-19T08:57:27.989Z,997.04
2019-02-19T08:58:27.954Z,997.07
2019-02-19T08:59:27.946Z,997.07
2019-02-19T09:00:27.961Z,997.09
2019-02-19T09:01:28.000Z,997.08
2019-02-19T09:02:27.904Z,997.16
2019-02-19T09:03:27.928Z,997.17
2019-02-19T09:04:27.896Z,997.20
2019-02-19T09:05:27.870Z,997.24
2019-02-19T09:06:27.863Z,997.18
2019-02-19T09:07:27.846Z,997.17
2019-02-19T09:08:27.865Z,997.20
2019-02-19T09:09:27.834Z,997.14
2019-02-19T09:10:27.820Z,997.12
2019-02-19T09:11:27.796Z,997.17
2019-02-19T09:12:27.790Z,997.18
2019-02-19T09:13:27.797Z,997.18
2019-02-19T09:14:27.773Z,997.17
2019-02-19T09:15:27.754Z,997.18
2019-02-19T09:16:27.751Z,997.14
2019-02-19T09:17:27.730Z,997.12
2019-02-19T09:18:27.769Z,997.18
2019-02-19T09:19:27.740Z,997.17
2019-02-19T09:20:27.700Z,997.25
2019-02-19T09:21:27.677Z,997.25
2019-02-19T09:22:27.667Z,997.25
2019-02-19T09:23:27.695Z,997.28
2019-02-19T09:24:27.644Z,997.32
2019-02-19T09:25:27.639Z,997.36
2019-02-19T09:26:27.647Z,997.31
2019-02-19T09:27:27.608Z,997.31
2019-02-19T09:28:27.622Z,997.36
2019-02-19T09:29:27.586Z,997.42
2019-02-19T09:30:27.601Z,997.52
2019-02-19T09:31:27.566Z,997.46
2019-02-19T09:32:27.548Z,997.43
2019-02-19T09:33:27.575Z,997.38
2019-02-19T09:34:27.523Z,997.39
2019-02-19T09:35:27.516Z,997.42
2019-02-19T09:36:27.505Z,997.42
2019-02-19T09:37:27.514Z,997.33
2019-02-19T09:38:27.478Z,997.33
2019-02-19T09:39:27.467Z,997.32
2019-02-19T09:40:27.451Z,997.30
2019-02-19T09:41:27.534Z,997.29
2019-02-19T09:42:27.499Z,997.26
2019-02-19T09:43:35.346Z,997.33
2019-02-19T09:44:28.414Z,997.34
2019-02-19T09:45:27.419Z,997.29
2019-02-19T09:46:27.385Z,997.36
2019-02-19T09:47:27.386Z,997.38
2019-02-19T09:48:27.403Z,997.31
2019-02-19T09:49:27.343Z,997.51
2019-02-19T09:50:27.359Z,997.54
2019-02-19T09:51:27.329Z,997.48
2019-02-19T09:52:27.309Z,997.50
2019-02-19T09:53:27.301Z,997.49
2019-02-19T09:54:27.361Z,997.46
2019-02-19T09:55:27.318Z,997.51
2019-02-19T09:56:27.267Z,997.44
2019-02-19T09:57:27.268Z,997.50
2019-02-19T09:58:27.242Z,997.31
2019-02-19T09:59:27.300Z,997.39
2019-02-19T10:00:27.223Z,997.83
2019-02-19T10:01:28.269Z,997.95
2019-02-19T10:02:27.200Z,998.16
2019-02-19T10:03:27.183Z,998.27
2019-02-19T10:04:27.206Z,998.57
2019-02-19T10:05:27.174Z,998.51
2019-02-19T10:06:27.154Z,998.63
2019-02-19T10:07:27.138Z,998.72
2019-02-19T10:08:27.197Z,998.66
2019-02-19T10:09:27.233Z,997.45
2019-02-19T10:10:27.108Z,998.63
2019-02-19T10:11:27.095Z,998.70
2019-02-19T10:12:27.090Z,998.48
2019-02-19T10:13:27.079Z,998.60
2019-02-19T10:14:27.112Z,998.77
2019-02-19T10:15:27.048Z,997.55
2019-02-19T10:16:27.038Z,997.58
2019-02-19T10:17:27.053Z,998.64
2019-02-19T10:18:27.020Z,998.81
2019-02-19T10:19:27.002Z,998.44
2019-02-19T10:20:27.014Z,997.31
2019-02-19T10:21:26.982Z,997.31
2019-02-19T10:22:26.995Z,997.21
2019-02-19T10:23:27.017Z,997.24
2019-02-19T10:24:26.946Z,997.22
2019-02-19T10:25:26.932Z,997.20
2019-02-19T10:26:26.943Z,997.21
2019-02-19T10:27:26.914Z,997.24
2019-02-19T10:28:26.958Z,997.19
2019-02-19T10:29:26.896Z,997.35
2019-02-19T10:30:26.887Z,997.32
2019-02-19T10:31:26.882Z,997.88
2019-02-19T10:32:26.898Z,997.28
2019-02-19T10:33:26.886Z,997.34
2019-02-19T10:34:26.856Z,997.27
2019-02-19T10:35:26.828Z,997.26
2019-02-19T10:36:26.850Z,997.31
2019-02-19T10:37:26.809Z,997.31
2019-02-19T10:38:26.784Z,997.31
2019-02-19T10:39:26.782Z,997.38
2019-02-19T10:40:26.826Z,997.43
2019-02-19T10:41:26.941Z,997.41
2019-02-19T10:42:26.768Z,998.86
2019-02-19T10:43:26.746Z,998.68
2019-02-19T10:44:27.283Z,998.56
2019-02-19T10:45:26.759Z,997.38
2019-02-19T10:46:26.701Z,997.46
2019-02-19T10:47:26.710Z,997.51
2019-02-19T10:48:26.683Z,997.89
2019-02-19T10:49:26.660Z,997.48
2019-02-19T10:50:26.690Z,997.37
2019-02-19T10:51:26.640Z,997.40
2019-02-19T10:52:26.630Z,997.95
2019-02-19T10:53:26.651Z,997.43
2019-02-19T10:54:26.627Z,997.53
2019-02-19T10:55:26.671Z,997.44
2019-02-19T10:56:26.581Z,997.45
2019-02-19T10:57:26.580Z,997.40
2019-02-19T10:58:26.594Z,997.52
2019-02-19T10:59:26.583Z,997.43
2019-02-19T11:00:26.536Z,997.40
2019-02-19T11:01:27.312Z,997.35
2019-02-19T11:02:26.520Z,997.33
2019-02-19T11:03:26.501Z,997.35
2019-02-19T11:04:26.493Z,997.30
2019-02-19T11:05:26.504Z,997.34
2019-02-19T11:06:26.516Z,997.38
2019-02-19T11:07:26.522Z,997.36
2019-02-19T11:08:26.457Z,997.37
2019-02-19T11:09:26.434Z,997.38
2019-02-19T11:10:26.426Z,997.39
2019-02-19T11:11:30.289Z,997.38
2019-02-19T11:12:26.417Z,997.33
2019-02-19T11:13:26.385Z,997.37
2019-02-19T11:14:26.412Z,997.31
2019-02-19T11:15:26.372Z,997.40
2019-02-19T11:16:26.358Z,997.28
2019-02-19T11:17:26.389Z,997.30
2019-02-19T11:18:28.838Z,997.29
2019-02-19T11:19:26.319Z,997.27
2019-02-19T11:20:26.310Z,997.22
2019-02-19T11:21:26.294Z,997.22
2019-02-19T11:22:26.306Z,997.24
2019-02-19T11:23:26.274Z,997.23
2019-02-19T11:24:26.260Z,997.16
2019-02-19T11:25:26.277Z,997.17
2019-02-19T11:26:26.242Z,997.07
2019-02-19T11:27:26.215Z,997.12
2019-02-19T11:28:26.211Z,997.16
2019-02-19T11:29:26.220Z,997.15
2019-02-19T11:30:26.185Z,997.14
2019-02-19T11:31:26.168Z,997.20
2019-02-19T11:32:26.419Z,997.22
2019-02-19T11:33:26.177Z,997.22
2019-02-19T11:34:26.163Z,997.21
2019-02-19T11:35:26.132Z,997.18
2019-02-19T11:36:26.106Z,997.21
2019-02-19T11:37:26.130Z,997.16
2019-02-19T11:38:26.088Z,997.13
2019-02-19T11:39:26.080Z,997.12
2019-02-19T11:40:26.114Z,997.14
2019-02-19T11:41:26.045Z,997.08
2019-02-19T11:42:26.047Z,997.08
2019-02-19T11:43:26.046Z,997.05
2019-02-19T11:44:26.020Z,997.14
2019-02-19T11:45:26.029Z,997.09
2019-02-19T11:46:26.000Z,997.13
2019-02-19T11:47:26.695Z,997.13
2019-02-19T11:48:26.040Z,997.14
2019-02-19T11:49:25.953Z,997.07
2019-02-19T11:50:25.941Z,997.08
2019-02-19T11:51:25.923Z,997.10
2019-02-19T11:52:25.914Z,997.06
2019-02-19T11:53:26.030Z,997.13
2019-02-19T11:54:25.895Z,997.04
2019-02-19T11:55:25.884Z,997.08
2019-02-19T11:56:25.866Z,997.04
2019-02-19T11:57:25.883Z,997.02
2019-02-19T11:58:25.864Z,997.10
2019-02-19T11:59:25.840Z,997.08
2019-02-19T12:00:25.861Z,997.04
2019-02-19T12:01:25.803Z,997.06
2019-02-19T12:02:32.742Z,997.06
2019-02-19T12:03:26.828Z,997.09
2019-02-19T12:04:25.804Z,997.01
2019-02-19T12:05:25.769Z,997.06
2019-02-19T12:06:25.808Z,997.01
2019-02-19T12:07:25.732Z,996.96
2019-02-19T12:08:25.729Z,996.98
2019-02-19T12:09:25.752Z,997.00
2019-02-19T12:10:25.739Z,996.99
2019-02-19T12:11:25.699Z,996.98
2019-02-19T12:12:25.686Z,997.04
2019-02-19T12:13:25.676Z,996.96
2019-02-19T12:14:25.681Z,996.99
2019-02-19T12:15:25.663Z,996.92
2019-02-19T12:16:25.630Z,996.95
2019-02-19T12:17:25.623Z,997.05
2019-02-19T12:18:25.635Z,997.01
2019-02-19T12:19:25.617Z,996.96
2019-02-19T12:20:25.589Z,996.96
2019-02-19T12:21:25.601Z,996.98
2019-02-19T12:22:25.580Z,996.98
2019-02-19T12:23:25.564Z,996.94
2019-02-19T12:24:25.554Z,996.92
2019-02-19T12:25:25.601Z,996.89
2019-02-19T12:26:25.523Z,996.97
2019-02-19T12:27:25.509Z,996.95
2019-02-19T12:28:25.528Z,996.97